createdAt,value
2022-09-13T00:01:19.249Z,90.55
2022-09-13T00:03:49.306Z,46.33
2022-09-13T00:06:19.811Z,61.97
2022-09-13T00:08:48.613Z,98.03
2022-09-13T00:11:34.970Z,67.13
2022-09-13T00:14:03.761Z,60.50
2022-09-13T00:16:32.163Z,36.63
2022-09-13T00:19:00.519Z,36.65
2022-09-13T00:21:29.333Z,36.03
2022-09-13T00:24:00.340Z,37.10
2022-09-13T00:28:58.405Z,37.53
2022-09-13T00:31:28.706Z,45.00
2022-09-13T00:36:27.171Z,57.38
2022-09-13T00:38:55.041Z,47.78
2022-09-13T00:41:23.977Z,45.00
2022-09-13T00:43:52.083Z,41.75
2022-09-13T00:46:40.623Z,41.25
2022-09-13T00:49:22.500Z,45.55
2022-09-13T00:52:08.006Z,34.33
2022-09-13T00:54:48.190Z,38.42
2022-09-13T00:57:21.450Z,36.25
2022-09-13T00:59:59.686Z,34.80
2022-09-13T01:02:29.131Z,26.40
2022-09-13T01:04:57.377Z,25.75
2022-09-13T01:07:25.226Z,30.38
2022-09-13T01:09:53.657Z,25.00
2022-09-13T01:12:54.147Z,28.15
2022-09-13T01:15:22.171Z,24.10
2022-09-13T01:17:52.777Z,30.70
2022-09-13T01:20:26.115Z,26.05
2022-09-13T01:23:36.357Z,23.45
2022-09-13T01:26:16.316Z,26.65
2022-09-13T01:29:13.763Z,27.92
2022-09-13T01:31:44.405Z,27.42
2022-09-13T01:34:30.227Z,25.85
2022-09-13T01:37:16.187Z,24.83
2022-09-13T01:40:11.505Z,25.25
2022-09-13T01:43:02.914Z,23.23
2022-09-13T01:45:55.482Z,20.45
2022-09-13T01:49:01.664Z,17.92
2022-09-13T01:51:29.898Z,17.90
2022-09-13T01:54:00.387Z,18.80
2022-09-13T01:57:00.680Z,19.35
2022-09-13T01:59:31.261Z,17.73
2022-09-13T02:02:12.387Z,15.55
2022-09-13T02:04:50.599Z,19.48
2022-09-13T02:07:22.486Z,17.13
2022-09-13T02:09:56.995Z,16.95
2022-09-13T02:12:28.027Z,14.32
2022-09-13T02:15:51.949Z,15.27
2022-09-13T02:18:28.860Z,17.10
2022-09-13T02:21:02.346Z,18.55
2022-09-13T02:23:37.192Z,17.73
2022-09-13T02:26:07.866Z,19.50
2022-09-13T02:28:44.187Z,24.52
2022-09-13T02:31:14.836Z,27.00
2022-09-13T02:33:48.837Z,23.63
2022-09-13T02:36:25.301Z,23.75
2022-09-13T02:39:00.234Z,21.30
2022-09-13T02:41:39.661Z,19.67
2022-09-13T02:44:19.093Z,19.88
2022-09-13T02:47:21.799Z,17.58
2022-09-13T02:49:55.775Z,16.63
2022-09-13T02:52:42.091Z,19.80
2022-09-13T02:55:40.777Z,16.77
2022-09-13T02:58:35.681Z,16.55
2022-09-13T03:01:04.058Z,17.40
2022-09-13T03:03:32.355Z,19.33
2022-09-13T03:06:01.497Z,25.25
2022-09-13T03:08:30.438Z,20.48
2022-09-13T03:11:18.896Z,23.10
2022-09-13T03:14:13.408Z,20.17
2022-09-13T03:16:55.251Z,18.73
2022-09-13T03:19:59.080Z,18.52
2022-09-13T03:22:32.889Z,21.83
2022-09-13T03:25:27.055Z,18.10
2022-09-13T03:28:04.382Z,16.48
2022-09-13T03:30:36.161Z,18.05
2022-09-13T03:33:29.298Z,21.10
2022-09-13T03:36:20.559Z,20.77
2022-09-13T03:39:01.827Z,22.20
2022-09-13T03:44:08.213Z,21.00
2022-09-13T03:46:41.539Z,21.48
2022-09-13T03:49:15.872Z,19.45
2022-09-13T03:51:50.169Z,16.98
2022-09-13T03:54:39.025Z,19.90
2022-09-13T03:57:19.071Z,21.95
2022-09-13T03:59:51.691Z,17.98
2022-09-13T04:02:21.227Z,17.65
2022-09-13T04:04:49.856Z,18.83
2022-09-13T04:07:22.757Z,23.65
2022-09-13T04:09:51.120Z,27.42
2022-09-13T04:12:19.201Z,37.35
2022-09-13T04:14:47.382Z,35.35
2022-09-13T04:17:15.874Z,37.45
2022-09-13T04:19:45.853Z,57.60
2022-09-13T04:22:14.528Z,74.80
2022-09-13T04:24:44.033Z,69.03
2022-09-13T04:27:13.459Z,91.03
2022-09-13T04:29:41.247Z,77.25
2022-09-13T04:32:10.701Z,67.38
2022-09-13T04:34:38.540Z,77.40
2022-09-13T04:37:06.333Z,61.47
2022-09-13T04:39:34.409Z,70.82
2022-09-13T04:42:02.631Z,78.50
2022-09-13T04:44:30.509Z,48.92
2022-09-13T04:46:58.606Z,65.30
2022-09-13T04:49:26.416Z,91.80
2022-09-13T04:51:54.186Z,58.15
2022-09-13T04:54:22.507Z,69.93
2022-09-13T04:56:50.195Z,49.92
2022-09-13T04:59:18.137Z,35.22
2022-09-13T05:01:46.274Z,50.03
2022-09-13T05:04:14.144Z,64.00
2022-09-13T05:06:41.845Z,69.20
2022-09-13T05:09:13.870Z,63.90
2022-09-13T05:11:42.284Z,52.95
2022-09-13T05:14:11.545Z,40.75
2022-09-13T05:16:39.840Z,29.33
2022-09-13T05:19:07.764Z,19.30
2022-09-13T05:21:35.541Z,19.40
2022-09-13T05:24:03.938Z,16.50
2022-09-13T05:26:31.935Z,12.95
2022-09-13T05:29:00.576Z,9.15
2022-09-13T05:31:36.086Z,14.00
2022-09-13T05:34:07.489Z,11.38
2022-09-13T05:36:35.594Z,11.38
2022-09-13T05:39:28.974Z,11.82
2022-09-13T05:41:52.722Z,10.93
2022-09-13T05:44:20.496Z,11.90
2022-09-13T05:46:48.998Z,13.80
2022-09-13T05:49:17.118Z,15.77
2022-09-13T05:51:44.868Z,22.23
2022-09-13T05:54:13.297Z,28.83
2022-09-13T05:56:41.738Z,31.05
2022-09-13T05:59:13.104Z,37.03
2022-09-13T06:01:41.686Z,56.30
2022-09-13T06:04:09.914Z,60.25
2022-09-13T06:06:37.635Z,65.50
2022-09-13T06:09:07.115Z,64.75
2022-09-13T06:11:35.266Z,69.30
2022-09-13T06:14:03.047Z,63.97
2022-09-13T06:16:30.938Z,64.53
2022-09-13T06:18:59.635Z,64.43
2022-09-13T06:21:29.276Z,69.18
2022-09-13T06:23:57.300Z,75.00
2022-09-13T06:26:28.369Z,72.97
2022-09-13T06:28:58.281Z,67.53
2022-09-13T06:31:28.772Z,63.42
2022-09-13T06:34:04.998Z,55.47
2022-09-13T06:36:33.085Z,56.53
2022-09-13T06:39:02.307Z,54.75
2022-09-13T06:41:30.219Z,54.00
2022-09-13T06:44:00.686Z,55.67
2022-09-13T06:46:31.069Z,60.40
2022-09-13T06:49:05.181Z,62.53
2022-09-13T06:51:34.482Z,54.00
2022-09-13T06:54:04.142Z,48.72
2022-09-13T06:56:37.345Z,61.33
2022-09-13T06:59:07.882Z,56.05
2022-09-13T07:01:41.374Z,50.60
2022-09-13T07:04:15.567Z,46.00
2022-09-13T07:06:47.219Z,46.88
2022-09-13T07:09:21.709Z,36.22
2022-09-13T07:11:51.330Z,36.13
2022-09-13T07:14:24.046Z,33.72
2022-09-13T07:16:52.767Z,38.15
2022-09-13T07:19:23.262Z,35.13
2022-09-13T07:21:51.314Z,24.98
2022-09-13T07:24:20.577Z,28.15
2022-09-13T07:26:49.493Z,22.33
2022-09-13T07:29:20.151Z,21.73
2022-09-13T07:31:49.778Z,20.35
2022-09-13T07:34:22.405Z,18.67
2022-09-13T07:36:50.821Z,18.30
2022-09-13T07:39:22.703Z,15.88
2022-09-13T07:41:52.288Z,12.45
2022-09-13T07:44:20.526Z,9.68
2022-09-13T07:46:48.426Z,11.40
2022-09-13T07:49:18.932Z,14.48
2022-09-13T07:51:47.276Z,13.57
2022-09-13T07:54:18.081Z,12.70
2022-09-13T07:56:47.114Z,8.98
2022-09-13T07:59:17.062Z,8.23
2022-09-13T08:01:49.421Z,8.43
2022-09-13T08:04:21.269Z,9.18
2022-09-13T08:06:50.123Z,9.40
2022-09-13T08:09:18.739Z,8.38
2022-09-13T08:11:49.681Z,7.90
2022-09-13T08:14:19.707Z,11.38
2022-09-13T08:16:48.701Z,8.10
2022-09-13T08:19:18.869Z,7.13
2022-09-13T08:21:46.966Z,6.88
2022-09-13T08:24:21.499Z,6.82
2022-09-13T08:26:49.933Z,9.07
2022-09-13T08:29:18.957Z,5.15
2022-09-13T08:31:47.377Z,7.20
2022-09-13T08:34:16.433Z,4.07
2022-09-13T08:36:44.830Z,5.05
2022-09-13T08:39:14.095Z,4.50
2022-09-13T08:41:46.735Z,5.13
2022-09-13T08:44:34.996Z,8.57
2022-09-13T08:47:33.276Z,5.85
2022-09-13T08:50:12.155Z,6.43
2022-09-13T08:53:22.696Z,7.78
2022-09-13T08:56:13.422Z,6.90
2022-09-13T08:58:47.226Z,9.48
2022-09-13T09:01:38.745Z,5.20
2022-09-13T09:04:46.896Z,4.55
2022-09-13T09:07:24.496Z,5.35
2022-09-13T09:10:13.142Z,3.95
2022-09-13T09:12:49.714Z,5.03
2022-09-13T09:15:24.327Z,3.90
2022-09-13T09:18:17.359Z,4.47
2022-09-13T09:20:48.439Z,3.83
2022-09-13T09:23:21.540Z,8.30
2022-09-13T09:25:55.255Z,3.13
2022-09-13T09:28:23.332Z,9.27
2022-09-13T09:31:06.263Z,7.35
2022-09-13T09:34:19.018Z,5.45
2022-09-13T09:36:54.986Z,4.40
2022-09-13T09:39:26.354Z,6.35
2022-09-13T09:41:57.888Z,6.80
2022-09-13T09:44:28.935Z,4.68
2022-09-13T09:47:20.978Z,6.78
2022-09-13T09:50:12.115Z,3.90
2022-09-13T09:53:04.291Z,6.13
2022-09-13T09:55:35.165Z,9.10
2022-09-13T09:58:06.535Z,5.38
2022-09-13T10:00:51.384Z,3.72
2022-09-13T10:03:24.364Z,3.75
2022-09-13T10:06:03.780Z,12.45
2022-09-13T10:08:34.773Z,4.38
2022-09-13T10:11:03.780Z,4.22
2022-09-13T10:13:32.627Z,2.97
2022-09-13T10:16:21.845Z,5.20
2022-09-13T10:18:49.999Z,3.20
2022-09-13T10:21:22.707Z,3.38
2022-09-13T10:23:51.615Z,3.92
2022-09-13T10:26:25.962Z,21.65
2022-09-13T10:29:07.370Z,7.47
2022-09-13T10:31:38.869Z,11.95
2022-09-13T10:34:12.284Z,6.70
2022-09-13T10:36:52.980Z,3.55
2022-09-13T10:39:24.179Z,5.20
2022-09-13T10:42:08.046Z,8.85
2022-09-13T10:44:57.355Z,6.50
2022-09-13T10:47:25.099Z,5.82
2022-09-13T10:49:55.874Z,3.03
2022-09-13T10:52:42.125Z,10.90
2022-09-13T10:55:19.302Z,5.75
2022-09-13T10:57:48.177Z,5.50
2022-09-13T11:00:43.573Z,12.23
2022-09-13T11:03:38.108Z,11.48
2022-09-13T11:06:30.942Z,6.82
2022-09-13T11:10:00.111Z,6.93
2022-09-13T11:13:00.312Z,3.67
2022-09-13T11:15:50.132Z,7.75
2022-09-13T11:18:35.805Z,3.40
2022-09-13T11:21:09.743Z,5.72
2022-09-13T11:23:56.395Z,19.92
2022-09-13T11:26:29.794Z,7.72
2022-09-13T11:29:31.514Z,3.63
2022-09-13T11:32:23.167Z,2.28
2022-09-13T11:35:29.502Z,5.63
2022-09-13T11:38:08.723Z,4.15
2022-09-13T11:41:01.522Z,3.13
2022-09-13T11:44:02.975Z,3.83
2022-09-13T11:46:48.287Z,6.55
2022-09-13T11:49:38.108Z,5.43
2022-09-13T11:52:33.027Z,2.63
2022-09-13T11:55:21.954Z,4.57
2022-09-13T11:57:53.643Z,3.55
2022-09-13T12:00:31.242Z,4.53
2022-09-13T12:03:06.751Z,2.75
2022-09-13T12:05:41.020Z,5.03
2022-09-13T12:08:17.083Z,5.70
2022-09-13T12:11:04.015Z,6.60
2022-09-13T12:13:49.666Z,3.95
2022-09-13T12:16:27.190Z,4.38
2022-09-13T12:18:59.972Z,5.68
2022-09-13T12:21:33.483Z,4.45
2022-09-13T12:24:01.484Z,5.32
2022-09-13T12:26:59.611Z,4.32
2022-09-13T12:29:37.953Z,4.25
2022-09-13T12:32:09.224Z,3.90
2022-09-13T12:35:07.246Z,4.15
2022-09-13T12:37:44.218Z,4.78
2022-09-13T12:40:15.449Z,4.57
2022-09-13T12:45:52.313Z,5.57
2022-09-13T12:48:41.692Z,4.43
2022-09-13T12:51:26.806Z,3.53
2022-09-13T13:19:32.724Z,5.03
2022-09-13T13:22:39.504Z,5.43
2022-09-13T13:25:36.381Z,5.85
2022-09-13T13:28:26.124Z,4.60
2022-09-13T13:30:56.670Z,4.65
2022-09-13T13:33:30.156Z,5.07
2022-09-13T13:36:30.337Z,4.78
2022-09-13T13:39:02.836Z,5.38
2022-09-13T13:41:38.610Z,4.80
2022-09-13T13:44:23.823Z,5.20
2022-09-13T13:47:17.717Z,6.13
2022-09-13T13:49:55.335Z,6.43
2022-09-13T13:52:50.948Z,8.52
2022-09-13T13:55:43.665Z,7.28
2022-09-13T13:58:33.975Z,8.07
2022-09-13T14:01:09.565Z,5.95
2022-09-13T14:03:53.637Z,9.20
2022-09-13T14:07:06.122Z,12.32
2022-09-13T14:09:54.438Z,11.45
2022-09-13T14:12:40.894Z,11.10
2022-09-13T14:15:40.369Z,11.60
2022-09-13T14:18:12.903Z,6.83
2022-09-13T14:21:16.753Z,7.20
2022-09-13T14:23:48.475Z,7.60
2022-09-13T14:26:17.424Z,9.45
2022-09-13T14:28:47.004Z,6.38
2022-09-13T14:31:20.890Z,5.75
2022-09-13T14:33:53.363Z,4.32
2022-09-13T14:36:27.882Z,10.50
2022-09-13T14:39:01.230Z,8.38
2022-09-13T14:41:37.436Z,6.68
2022-09-13T14:44:24.953Z,7.28
2022-09-13T14:47:46.613Z,6.55
2022-09-13T14:50:33.361Z,8.10
2022-09-13T14:53:17.059Z,7.68
2022-09-13T14:56:06.458Z,4.75
2022-09-13T14:58:48.057Z,6.07
2022-09-13T15:01:34.774Z,6.63
2022-09-13T15:07:06.109Z,10.95
2022-09-13T15:09:38.889Z,9.82
2022-09-13T15:12:29.314Z,10.98
2022-09-13T15:15:36.778Z,12.20
2022-09-13T15:18:24.413Z,7.15
2022-09-13T15:21:04.473Z,10.73
2022-09-13T15:23:40.329Z,5.78
2022-09-13T15:26:42.966Z,7.70
2022-09-13T15:29:22.095Z,8.30
2022-09-13T15:31:59.811Z,6.97
2022-09-13T15:34:31.048Z,9.25
2022-09-13T15:37:01.853Z,5.78
2022-09-13T15:39:48.524Z,5.28
2022-09-13T15:42:23.723Z,7.38
2022-09-13T15:44:53.453Z,9.88
2022-09-13T15:47:24.418Z,9.45
2022-09-13T15:49:56.753Z,13.13
2022-09-13T15:52:29.088Z,7.97
2022-09-13T15:55:02.045Z,7.47
2022-09-13T15:57:31.643Z,6.38
2022-09-13T16:00:06.350Z,7.57
2022-09-13T16:02:38.544Z,11.25
2022-09-13T16:05:13.691Z,6.50
2022-09-13T16:07:44.213Z,8.57
2022-09-13T16:10:20.438Z,8.18
2022-09-13T16:12:52.152Z,5.97
2022-09-13T16:15:21.689Z,6.30
2022-09-13T16:17:53.950Z,9.18
2022-09-13T16:20:28.241Z,8.68
2022-09-13T16:23:02.543Z,25.35
2022-09-13T16:28:07.749Z,29.38
2022-09-13T16:30:42.325Z,25.05
2022-09-13T16:33:11.210Z,31.05
2022-09-13T16:35:40.105Z,17.50
2022-09-13T16:38:13.055Z,13.45
2022-09-13T16:40:45.958Z,15.68
2022-09-13T16:43:15.267Z,16.02
2022-09-13T16:45:46.345Z,12.48
2022-09-13T16:48:20.442Z,26.35
2022-09-13T16:50:53.049Z,20.63
2022-09-13T16:53:24.752Z,19.60
2022-09-13T16:55:53.593Z,11.00
2022-09-13T16:58:24.490Z,13.52
2022-09-13T17:00:58.560Z,14.63
2022-09-13T17:03:35.446Z,9.88
2022-09-13T17:06:06.976Z,9.38
2022-09-13T17:08:41.760Z,14.82
2022-09-13T17:11:13.927Z,9.18
2022-09-13T17:13:43.589Z,8.35
2022-09-13T17:16:35.950Z,10.48
2022-09-13T17:19:23.961Z,16.58
2022-09-13T17:21:57.792Z,22.35
2022-09-13T17:24:30.459Z,34.72
2022-09-13T17:27:00.151Z,25.65
2022-09-13T17:29:31.254Z,46.58
2022-09-13T17:32:03.573Z,66.35
2022-09-13T17:34:35.198Z,85.32
2022-09-13T17:39:35.444Z,28.77
2022-09-13T17:42:06.198Z,26.02
2022-09-13T17:44:45.871Z,19.15
2022-09-13T17:47:18.464Z,14.18
2022-09-13T17:49:48.379Z,12.00
2022-09-13T17:52:17.802Z,13.60
2022-09-13T17:54:47.481Z,11.23
2022-09-13T17:57:17.196Z,10.35
2022-09-13T17:59:54.262Z,13.43
2022-09-13T18:02:28.148Z,12.68
2022-09-13T18:05:05.407Z,11.90
2022-09-13T18:07:35.544Z,13.32
2022-09-13T18:10:20.238Z,14.05
2022-09-13T18:12:57.873Z,11.87
2022-09-13T18:15:34.036Z,12.73
2022-09-13T18:18:08.459Z,13.20
2022-09-13T18:20:42.638Z,12.48
2022-09-13T18:23:14.412Z,13.35
2022-09-13T18:25:47.593Z,9.65
2022-09-13T18:28:19.747Z,12.35
2022-09-13T18:31:10.505Z,11.05
2022-09-13T18:33:39.850Z,8.63
2022-09-13T18:36:13.450Z,10.45
2022-09-13T18:38:47.234Z,10.07
2022-09-13T18:41:32.451Z,13.75
2022-09-13T18:44:05.663Z,18.80
2022-09-13T18:46:37.728Z,13.32
2022-09-13T18:49:08.506Z,19.58
2022-09-13T18:51:40.328Z,13.50
2022-09-13T18:54:15.245Z,16.65
2022-09-13T18:56:45.271Z,14.05
2022-09-13T18:59:15.982Z,11.40
2022-09-13T19:01:55.273Z,13.90
2022-09-13T19:04:26.715Z,11.60
2022-09-13T19:07:05.814Z,9.27
2022-09-13T19:09:36.445Z,9.35
2022-09-13T19:12:08.541Z,14.27
2022-09-13T19:14:39.396Z,10.32
2022-09-13T19:17:08.619Z,10.77
2022-09-13T19:19:48.669Z,9.77
2022-09-13T19:22:18.606Z,9.82
2022-09-13T19:24:49.673Z,14.35
2022-09-13T19:27:22.952Z,9.18
2022-09-13T19:29:52.512Z,7.28
2022-09-13T19:32:31.544Z,8.90
2022-09-13T19:35:04.593Z,10.13
2022-09-13T19:37:35.675Z,10.32
2022-09-13T19:40:12.560Z,13.20
2022-09-13T19:42:50.716Z,11.18
2022-09-13T19:45:23.905Z,9.98
2022-09-13T19:48:37.631Z,14.13
2022-09-13T19:50:50.365Z,10.07
2022-09-13T19:53:19.742Z,10.95
2022-09-13T19:55:51.294Z,13.05
2022-09-13T19:58:31.233Z,8.73
2022-09-13T20:01:11.254Z,12.13
2022-09-13T20:03:40.091Z,10.90
2022-09-13T20:06:11.561Z,12.95
2022-09-13T20:08:40.906Z,12.48
2022-09-13T20:11:18.200Z,10.50
2022-09-13T20:13:48.508Z,10.32
2022-09-13T20:16:26.174Z,9.25
2022-09-13T20:18:58.203Z,9.82
2022-09-13T20:21:28.585Z,8.55
2022-09-13T20:24:04.863Z,11.88
2022-09-13T20:26:36.258Z,9.88
2022-09-13T20:29:07.047Z,12.57
2022-09-13T20:31:38.593Z,10.00
2022-09-13T20:34:09.247Z,13.00
2022-09-13T20:36:38.931Z,11.45
2022-09-13T20:39:08.613Z,14.95
2022-09-13T20:41:47.175Z,18.45
2022-09-13T20:44:21.472Z,12.45
2022-09-13T20:46:50.653Z,15.88
2022-09-13T20:49:23.099Z,13.88
2022-09-13T20:51:54.422Z,10.52
2022-09-13T20:54:23.068Z,11.95
2022-09-13T20:56:52.544Z,14.60
2022-09-13T20:59:24.051Z,13.43
2022-09-13T21:01:54.911Z,15.57
2022-09-13T21:04:27.115Z,15.38
2022-09-13T21:07:17.722Z,20.13
2022-09-13T21:09:49.574Z,13.75
2022-09-13T21:12:47.686Z,13.75
2022-09-13T21:15:30.454Z,14.02
2022-09-13T21:18:21.677Z,13.43
2022-09-13T21:21:16.329Z,14.13
2022-09-13T21:24:56.668Z,11.10
2022-09-13T21:31:38.835Z,15.95
2022-09-13T21:34:16.227Z,17.27
2022-09-13T21:37:04.125Z,16.95
2022-09-13T21:39:33.358Z,15.60
2022-09-13T21:42:02.805Z,13.45
2022-09-13T21:44:46.848Z,13.70
2022-09-13T21:47:39.620Z,13.27
2022-09-13T21:50:12.890Z,13.10
2022-09-13T21:52:42.229Z,12.10
2022-09-13T21:55:12.190Z,12.70
2022-09-13T21:57:41.214Z,15.80
2022-09-13T22:00:12.966Z,17.67
2022-09-13T22:02:43.195Z,14.60
2022-09-13T22:05:12.740Z,13.47
2022-09-13T22:07:47.725Z,19.85
2022-09-13T22:10:19.688Z,14.38
2022-09-13T22:12:48.133Z,15.80
2022-09-13T22:15:18.260Z,15.20
2022-09-13T22:17:49.115Z,14.00
2022-09-13T22:20:22.079Z,14.45
2022-09-13T22:22:50.694Z,11.65
2022-09-13T22:25:22.862Z,11.98
2022-09-13T22:27:51.358Z,14.57
2022-09-13T22:30:23.143Z,18.27
2022-09-13T22:32:52.476Z,17.70
2022-09-13T22:35:26.426Z,13.07
2022-09-13T22:37:58.943Z,14.50
2022-09-13T22:40:27.511Z,12.02
2022-09-13T22:42:56.185Z,12.10
2022-09-13T22:45:26.041Z,13.98
2022-09-13T22:47:55.088Z,13.02
2022-09-13T22:50:24.055Z,15.52
2022-09-13T22:52:55.806Z,14.95
2022-09-13T22:55:24.529Z,15.30
2022-09-13T22:57:59.073Z,13.57
2022-09-13T23:00:35.128Z,13.20
2022-09-13T23:03:09.081Z,12.95
2022-09-13T23:05:38.310Z,12.23
2022-09-13T23:08:07.940Z,13.60
2022-09-13T23:10:37.309Z,15.40
2022-09-13T23:13:08.116Z,15.43
2022-09-13T23:15:37.227Z,15.25
2022-09-13T23:18:10.710Z,15.60
2022-09-13T23:20:39.468Z,15.98
2022-09-13T23:23:12.066Z,14.38
2022-09-13T23:25:40.889Z,14.70
2022-09-13T23:28:12.135Z,13.90
2022-09-13T23:30:44.606Z,15.25
2022-09-13T23:33:13.780Z,14.77
2022-09-13T23:35:42.346Z,16.90
2022-09-13T23:38:12.087Z,17.27
2022-09-13T23:40:44.525Z,18.35
2022-09-13T23:43:13.950Z,14.25
2022-09-13T23:45:47.861Z,15.63
2022-09-13T23:48:16.726Z,15.57
2022-09-13T23:50:48.615Z,18.50
2022-09-13T23:53:19.816Z,21.50
2022-09-13T23:55:55.100Z,17.60
2022-09-13T23:58:26.698Z,18.95
